createdAt,value
2022-12-06T00:01:32.210Z,4.00
2022-12-06T00:04:03.323Z,4.17
2022-12-06T00:06:33.517Z,4.20
2022-12-06T00:09:02.452Z,4.53
2022-12-06T00:11:32.059Z,4.33
2022-12-06T00:14:01.837Z,4.00
2022-12-06T00:16:30.640Z,5.13
2022-12-06T00:18:59.286Z,4.40
2022-12-06T00:21:30.133Z,4.37
2022-12-06T00:24:00.278Z,4.63
2022-12-06T00:26:29.125Z,4.00
2022-12-06T00:28:59.358Z,6.40
2022-12-06T00:31:30.701Z,4.90
2022-12-06T00:33:58.821Z,4.40
2022-12-06T00:36:29.910Z,4.50
2022-12-06T00:39:00.449Z,3.57
2022-12-06T00:41:28.916Z,3.70
2022-12-06T00:43:57.138Z,4.17
2022-12-06T00:46:27.282Z,4.30
2022-12-06T00:48:56.807Z,6.57
2022-12-06T00:51:26.123Z,4.50
2022-12-06T00:53:55.483Z,3.70
2022-12-06T00:56:24.103Z,3.50
2022-12-06T00:58:52.338Z,4.33
2022-12-06T01:01:22.719Z,4.00
2022-12-06T01:03:54.399Z,3.33
2022-12-06T01:06:28.271Z,3.97
2022-12-06T01:09:04.084Z,3.87
2022-12-06T01:11:32.395Z,3.40
2022-12-06T01:14:00.335Z,3.17
2022-12-06T01:16:31.342Z,3.73
2022-12-06T01:19:01.058Z,4.00
2022-12-06T01:21:29.929Z,3.47
2022-12-06T01:23:59.882Z,4.13
2022-12-06T01:26:30.217Z,4.77
2022-12-06T01:28:58.989Z,4.27
2022-12-06T01:31:30.860Z,4.27
2022-12-06T01:34:03.792Z,3.57
2022-12-06T01:36:31.720Z,5.37
2022-12-06T01:39:06.785Z,3.90
2022-12-06T01:41:34.943Z,5.63
2022-12-06T01:44:03.045Z,3.67
2022-12-06T01:46:34.860Z,3.63
2022-12-06T01:49:09.252Z,5.27
2022-12-06T01:51:37.966Z,5.63
2022-12-06T01:54:11.681Z,3.47
2022-12-06T01:56:41.093Z,3.27
2022-12-06T01:59:10.641Z,4.20
2022-12-06T02:01:40.071Z,5.63
2022-12-06T02:04:09.595Z,4.73
2022-12-06T02:06:40.226Z,2.70
2022-12-06T02:09:11.315Z,3.60
2022-12-06T02:11:39.969Z,3.90
2022-12-06T02:14:11.854Z,5.17
2022-12-06T02:16:53.108Z,3.63
2022-12-06T02:19:49.715Z,4.53
2022-12-06T02:22:24.278Z,3.23
2022-12-06T02:25:06.671Z,3.50
2022-12-06T02:27:59.446Z,2.67
2022-12-06T02:30:43.821Z,4.23
2022-12-06T02:33:20.706Z,2.87
2022-12-06T02:35:54.021Z,3.13
2022-12-06T02:38:32.163Z,2.80
2022-12-06T02:41:03.517Z,4.30
2022-12-06T02:43:38.873Z,3.40
2022-12-06T02:46:10.880Z,3.10
2022-12-06T02:48:40.102Z,4.03
2022-12-06T02:51:14.552Z,5.10
2022-12-06T02:53:47.948Z,4.70
2022-12-06T02:56:18.376Z,4.13
2022-12-06T02:58:46.485Z,5.53
2022-12-06T03:01:18.557Z,4.23
2022-12-06T03:04:10.166Z,4.87
2022-12-06T03:06:59.003Z,4.77
2022-12-06T03:09:42.663Z,3.47
2022-12-06T03:12:18.833Z,4.47
2022-12-06T03:14:54.256Z,3.27
2022-12-06T03:17:29.303Z,4.00
2022-12-06T03:20:00.797Z,5.20
2022-12-06T03:22:38.278Z,4.23
2022-12-06T03:25:09.115Z,4.03
2022-12-06T03:27:37.898Z,3.33
2022-12-06T03:30:10.980Z,3.50
2022-12-06T03:32:44.895Z,4.13
2022-12-06T03:35:16.200Z,4.20
2022-12-06T03:37:48.867Z,4.37
2022-12-06T03:40:20.670Z,3.63
2022-12-06T03:42:50.029Z,4.80
2022-12-06T03:45:19.038Z,4.17
2022-12-06T03:47:54.535Z,4.73
2022-12-06T03:50:29.301Z,3.13
2022-12-06T03:52:57.300Z,3.50
2022-12-06T03:55:25.309Z,3.23
2022-12-06T03:57:53.192Z,3.57
2022-12-06T04:00:21.513Z,3.33
2022-12-06T04:02:50.874Z,3.83
2022-12-06T04:05:19.269Z,3.23
2022-12-06T04:07:47.596Z,3.00
2022-12-06T04:10:15.748Z,4.47
2022-12-06T04:13:00.812Z,2.93
2022-12-06T04:15:30.306Z,4.50
2022-12-06T04:18:11.296Z,3.53
2022-12-06T04:21:01.963Z,3.63
2022-12-06T04:23:31.663Z,3.50
2022-12-06T04:26:00.102Z,4.00
2022-12-06T04:28:45.577Z,4.90
2022-12-06T04:31:31.381Z,5.03
2022-12-06T04:34:18.231Z,5.00
2022-12-06T04:37:04.236Z,4.23
2022-12-06T04:39:32.691Z,3.80
2022-12-06T04:42:17.854Z,4.47
2022-12-06T04:44:45.947Z,5.10
2022-12-06T04:47:13.923Z,4.77
2022-12-06T04:49:43.238Z,4.77
2022-12-06T04:52:12.038Z,4.93
2022-12-06T04:54:40.491Z,3.90
2022-12-06T04:57:11.095Z,4.13
2022-12-06T04:59:40.364Z,4.67
2022-12-06T05:02:10.090Z,5.13
2022-12-06T05:04:38.231Z,4.43
2022-12-06T05:07:07.655Z,5.03
2022-12-06T05:09:35.681Z,3.77
2022-12-06T05:12:03.621Z,8.63
2022-12-06T05:14:31.895Z,3.90
2022-12-06T05:17:00.111Z,4.87
2022-12-06T05:19:28.577Z,4.97
2022-12-06T05:21:56.659Z,3.77
2022-12-06T05:27:07.978Z,5.63
2022-12-06T05:29:35.895Z,4.07
2022-12-06T05:32:03.841Z,4.20
2022-12-06T05:34:31.857Z,3.50
2022-12-06T05:36:59.850Z,4.17
2022-12-06T05:39:29.409Z,4.97
2022-12-06T05:41:57.400Z,4.67
2022-12-06T05:44:25.377Z,3.90
2022-12-06T05:46:53.298Z,4.87
2022-12-06T05:49:21.371Z,5.43
2022-12-06T05:51:49.338Z,5.50
2022-12-06T05:54:17.318Z,6.13
2022-12-06T05:56:46.658Z,6.10
2022-12-06T05:59:14.638Z,3.57
2022-12-06T06:01:51.491Z,3.80
2022-12-06T06:04:20.177Z,3.37
2022-12-06T06:06:49.510Z,4.50
2022-12-06T06:09:18.363Z,4.00
2022-12-06T06:11:49.031Z,4.30
2022-12-06T06:14:17.500Z,4.53
2022-12-06T06:16:45.823Z,4.97
2022-12-06T06:19:16.736Z,5.57
2022-12-06T06:21:45.206Z,2.90
2022-12-06T06:24:13.465Z,5.40
2022-12-06T06:26:42.899Z,3.17
2022-12-06T06:29:14.285Z,3.43
2022-12-06T06:31:43.331Z,3.40
2022-12-06T06:34:12.044Z,4.00
2022-12-06T06:36:45.550Z,3.27
2022-12-06T06:39:21.292Z,4.27
2022-12-06T06:41:50.660Z,3.77
2022-12-06T06:44:30.717Z,4.77
2022-12-06T06:47:01.212Z,4.10
2022-12-06T06:49:30.210Z,7.20
2022-12-06T06:51:58.369Z,5.20
2022-12-06T06:54:28.201Z,5.40
2022-12-06T06:56:57.163Z,3.07
2022-12-06T06:59:27.831Z,3.60
2022-12-06T07:01:58.914Z,4.40
2022-12-06T07:04:30.445Z,4.40
2022-12-06T07:07:00.960Z,4.83
2022-12-06T07:09:29.845Z,5.73
2022-12-06T07:11:58.323Z,3.93
2022-12-06T07:14:32.384Z,5.77
2022-12-06T07:17:00.710Z,3.80
2022-12-06T07:19:31.203Z,4.23
2022-12-06T07:21:59.703Z,3.67
2022-12-06T07:24:29.582Z,3.83
2022-12-06T07:27:00.294Z,6.40
2022-12-06T07:29:31.032Z,5.23
2022-12-06T07:32:03.594Z,4.30
2022-12-06T07:48:11.991Z,4.00
2022-12-06T07:50:40.766Z,3.47
2022-12-06T07:53:18.295Z,4.07
2022-12-06T07:55:50.428Z,3.00
2022-12-06T07:58:19.520Z,4.97
2022-12-06T08:00:48.489Z,4.13
2022-12-06T08:06:33.215Z,6.27
2022-12-06T08:11:46.001Z,6.13
2022-12-06T08:17:20.303Z,5.87
2022-12-06T08:19:54.399Z,5.50
2022-12-06T08:25:07.172Z,4.83
2022-12-06T08:27:49.016Z,8.43
2022-12-06T08:30:26.306Z,5.97
2022-12-06T08:32:55.511Z,4.57
2022-12-06T08:35:38.924Z,6.00
2022-12-06T08:38:07.947Z,3.97
2022-12-06T08:40:36.967Z,3.50
2022-12-06T08:43:14.372Z,5.53
2022-12-06T08:45:45.088Z,4.40
2022-12-06T08:48:14.472Z,4.00
2022-12-06T08:50:48.339Z,5.40
2022-12-06T08:53:18.029Z,5.43
2022-12-06T08:56:02.962Z,3.63
2022-12-06T08:58:31.705Z,6.00
2022-12-06T09:01:00.507Z,4.10
2022-12-06T09:10:27.975Z,3.90
2022-12-06T09:13:16.575Z,3.50
2022-12-06T09:15:45.925Z,5.20
2022-12-06T09:23:43.757Z,4.13
2022-12-06T09:26:13.091Z,5.07
2022-12-06T09:28:45.976Z,4.80
2022-12-06T09:37:08.644Z,4.83
2022-12-06T09:43:08.929Z,4.47
2022-12-06T09:46:07.297Z,6.63
2022-12-06T09:51:54.314Z,5.13
2022-12-06T09:55:00.087Z,4.03
2022-12-06T09:57:40.427Z,4.83
2022-12-06T10:00:19.009Z,4.17
2022-12-06T10:06:39.554Z,3.93
2022-12-06T10:09:25.897Z,4.77
2022-12-06T10:12:20.288Z,3.90
2022-12-06T10:18:05.139Z,5.10
2022-12-06T10:34:36.451Z,8.15
2022-12-06T10:37:21.101Z,4.97
2022-12-06T10:39:54.947Z,8.70
2022-12-06T10:42:33.512Z,4.10
2022-12-06T10:45:32.352Z,5.18
2022-12-06T10:48:02.567Z,6.63
2022-12-06T10:50:34.713Z,4.43
2022-12-06T10:53:33.143Z,6.13
2022-12-06T10:56:13.985Z,5.47
2022-12-06T11:01:50.325Z,6.93
2022-12-06T11:04:26.901Z,5.50
2022-12-06T11:07:29.289Z,4.03
2022-12-06T11:10:02.398Z,5.93
2022-12-06T11:12:38.901Z,5.50
2022-12-06T11:15:18.510Z,7.60
2022-12-06T11:17:51.235Z,5.83
2022-12-06T11:20:28.390Z,5.97
2022-12-06T11:23:15.187Z,6.97
2022-12-06T11:26:14.830Z,4.60
2022-12-06T11:29:06.137Z,4.63
2022-12-06T11:32:00.668Z,4.63
2022-12-06T11:43:28.471Z,6.05
2022-12-06T11:46:27.753Z,7.40
2022-12-06T11:49:17.629Z,6.18
2022-12-06T11:54:55.727Z,5.28
2022-12-06T11:57:45.916Z,5.05
2022-12-06T12:00:19.889Z,6.75
2022-12-06T12:02:50.760Z,6.30
2022-12-06T12:05:34.688Z,5.65
2022-12-06T12:08:08.925Z,5.82
2022-12-06T12:10:39.541Z,7.72
2022-12-06T12:13:38.593Z,5.07
2022-12-06T12:16:19.678Z,5.97
2022-12-06T12:19:02.413Z,5.50
2022-12-06T12:21:39.596Z,4.68
2022-12-06T12:27:48.865Z,7.10
2022-12-06T12:30:36.690Z,5.55
2022-12-06T12:33:26.403Z,6.25
2022-12-06T12:36:26.087Z,7.15
2022-12-06T12:39:00.700Z,6.18
2022-12-06T12:41:35.022Z,5.88
2022-12-06T12:44:35.734Z,9.05
2022-12-06T12:46:59.353Z,6.20
2022-12-06T12:49:44.195Z,5.57
2022-12-06T12:52:33.063Z,6.72
2022-12-06T12:58:24.871Z,5.45
2022-12-06T13:01:09.004Z,5.82
2022-12-06T13:03:53.350Z,5.55
2022-12-06T13:10:24.740Z,5.78
2022-12-06T13:13:01.963Z,6.60
2022-12-06T13:15:49.659Z,6.03
2022-12-06T13:18:36.216Z,5.40
2022-12-06T13:21:13.986Z,6.63
2022-12-06T13:23:57.240Z,6.25
2022-12-06T13:26:30.653Z,5.53
2022-12-06T13:29:17.604Z,4.40
2022-12-06T13:32:29.977Z,5.80
2022-12-06T13:45:42.480Z,5.80
2022-12-06T13:48:38.947Z,7.53
2022-12-06T13:51:17.563Z,6.05
2022-12-06T13:54:24.539Z,5.78
2022-12-06T13:56:59.174Z,5.18
2022-12-06T13:59:41.060Z,5.63
2022-12-06T14:02:51.426Z,5.50
2022-12-06T14:08:33.273Z,10.15
2022-12-06T14:11:25.209Z,6.70
2022-12-06T14:14:04.034Z,5.80
2022-12-06T14:16:39.180Z,5.57
2022-12-06T14:19:17.271Z,7.03
2022-12-06T14:21:55.139Z,11.47
2022-12-06T14:24:30.881Z,6.53
2022-12-06T14:27:14.173Z,6.27
2022-12-06T14:29:46.233Z,7.90
2022-12-06T14:32:19.126Z,7.50
2022-12-06T14:34:48.826Z,8.60
2022-12-06T14:37:23.695Z,6.30
2022-12-06T14:40:07.268Z,10.13
2022-12-06T14:43:03.338Z,9.73
2022-12-06T14:45:35.573Z,7.33
2022-12-06T14:48:05.845Z,6.73
2022-12-06T14:50:42.945Z,7.73
2022-12-06T14:53:15.217Z,6.33
2022-12-06T14:56:01.503Z,8.03
2022-12-06T14:58:39.925Z,5.47
2022-12-06T15:01:25.879Z,8.93
2022-12-06T15:04:02.772Z,7.47
2022-12-06T15:06:40.179Z,6.10
2022-12-06T15:09:16.004Z,5.30
2022-12-06T15:12:03.211Z,8.47
2022-12-06T15:14:51.009Z,6.60
2022-12-06T15:17:20.808Z,7.10
2022-12-06T15:19:53.130Z,8.13
2022-12-06T15:22:25.930Z,5.47
2022-12-06T15:27:48.708Z,6.83
2022-12-06T15:30:18.166Z,6.57
2022-12-06T15:32:46.712Z,7.67
2022-12-06T15:35:18.722Z,7.13
2022-12-06T15:37:50.351Z,6.73
2022-12-06T15:40:21.683Z,9.47
2022-12-06T15:43:34.093Z,8.33
2022-12-06T15:46:05.857Z,7.77
2022-12-06T15:48:48.700Z,8.57
2022-12-06T15:51:26.174Z,10.30
2022-12-06T15:53:56.670Z,9.43
2022-12-06T15:56:27.316Z,7.90
2022-12-06T15:58:55.451Z,9.80
2022-12-06T16:01:27.554Z,11.93
2022-12-06T16:03:58.483Z,11.93
2022-12-06T16:06:28.770Z,11.17
2022-12-06T16:08:57.470Z,10.53
2022-12-06T16:11:34.967Z,12.90
2022-12-06T16:14:03.617Z,11.83
2022-12-06T16:16:37.269Z,15.77
2022-12-06T16:19:08.380Z,12.23
2022-12-06T16:21:39.896Z,24.00
2022-12-06T16:24:14.505Z,16.00
2022-12-06T16:26:45.763Z,13.80
2022-12-06T16:29:16.427Z,10.97
2022-12-06T16:31:46.414Z,11.27
2022-12-06T16:34:16.410Z,10.03
2022-12-06T16:37:04.279Z,12.07
2022-12-06T16:39:50.648Z,14.07
2022-12-06T16:42:19.568Z,16.43
2022-12-06T16:44:52.945Z,14.27
2022-12-06T16:49:50.049Z,17.30
2022-12-06T16:52:18.647Z,11.97
2022-12-06T16:54:52.804Z,10.83
2022-12-06T16:57:21.175Z,11.90
2022-12-06T16:59:49.697Z,12.83
2022-12-06T17:02:27.712Z,14.33
2022-12-06T17:04:56.328Z,14.17
2022-12-06T17:07:24.906Z,11.87
2022-12-06T17:09:53.536Z,11.97
2022-12-06T17:12:30.873Z,11.97
2022-12-06T17:15:01.131Z,17.23
2022-12-06T17:17:31.180Z,16.07
2022-12-06T17:20:00.489Z,12.00
2022-12-06T17:22:30.037Z,18.27
2022-12-06T17:24:59.533Z,18.20
2022-12-06T17:27:28.830Z,14.13
2022-12-06T17:29:57.832Z,14.93
2022-12-06T17:32:42.510Z,13.37
2022-12-06T17:35:15.074Z,23.50
2022-12-06T17:40:33.898Z,22.47
2022-12-06T17:43:00.985Z,13.93
2022-12-06T17:45:31.146Z,17.13
2022-12-06T17:47:59.504Z,15.90
2022-12-06T17:50:30.648Z,13.23
2022-12-06T17:53:00.529Z,13.10
2022-12-06T17:55:34.393Z,9.40
2022-12-06T17:58:03.927Z,10.83
2022-12-06T18:00:46.520Z,9.63
2022-12-06T18:03:16.670Z,11.53
2022-12-06T18:05:57.371Z,10.53
2022-12-06T18:08:26.093Z,11.67
2022-12-06T18:11:15.285Z,14.90
2022-12-06T18:13:53.488Z,19.23
2022-12-06T18:16:24.268Z,12.70
2022-12-06T18:18:56.737Z,12.80
2022-12-06T18:21:28.293Z,12.27
2022-12-06T18:24:20.417Z,11.70
2022-12-06T18:26:45.889Z,10.87
2022-12-06T18:29:17.274Z,12.17
2022-12-06T18:31:48.449Z,12.80
2022-12-06T18:34:18.202Z,13.10
2022-12-06T18:36:48.813Z,12.93
2022-12-06T18:39:24.932Z,13.27
2022-12-06T18:41:55.204Z,11.53
2022-12-06T18:44:24.945Z,12.80
2022-12-06T18:46:53.017Z,19.87
2022-12-06T18:49:21.104Z,17.33
2022-12-06T18:51:51.699Z,13.93
2022-12-06T18:54:21.397Z,12.73
2022-12-06T18:56:50.894Z,13.90
2022-12-06T18:59:22.066Z,11.87
2022-12-06T19:01:54.263Z,10.50
2022-12-06T19:04:25.447Z,13.23
2022-12-06T19:06:56.026Z,12.83
2022-12-06T19:09:24.887Z,12.53
2022-12-06T19:11:58.135Z,16.13
2022-12-06T19:14:29.242Z,12.00
2022-12-06T19:16:59.156Z,14.40
2022-12-06T19:19:28.662Z,15.97
2022-12-06T19:21:58.584Z,13.40
2022-12-06T19:24:33.864Z,15.17
2022-12-06T19:27:02.496Z,13.57
2022-12-06T19:29:31.449Z,12.73
2022-12-06T19:32:01.011Z,15.03
2022-12-06T19:34:43.280Z,16.13
2022-12-06T19:37:12.887Z,12.70
2022-12-06T19:42:41.232Z,11.93
2022-12-06T19:45:12.269Z,13.50
2022-12-06T19:47:41.299Z,11.07
2022-12-06T19:50:13.350Z,11.00
2022-12-06T19:52:48.993Z,14.07
2022-12-06T19:55:17.641Z,13.37
2022-12-06T19:57:46.513Z,13.67
2022-12-06T20:00:22.742Z,11.30
2022-12-06T20:02:52.127Z,13.37
2022-12-06T20:05:21.212Z,13.63
2022-12-06T20:07:55.526Z,11.57
2022-12-06T20:10:23.998Z,15.50
2022-12-06T20:12:52.062Z,12.63
2022-12-06T20:15:20.118Z,14.23
2022-12-06T20:17:48.953Z,13.00
2022-12-06T20:20:18.887Z,11.27
2022-12-06T20:22:47.867Z,10.90
2022-12-06T20:25:18.499Z,12.00
2022-12-06T20:27:53.567Z,11.40
2022-12-06T20:30:24.572Z,13.40
2022-12-06T20:32:53.014Z,11.93
2022-12-06T20:35:22.485Z,10.87
2022-12-06T20:37:54.061Z,13.30
2022-12-06T20:40:29.888Z,9.93
2022-12-06T20:43:00.516Z,10.00
2022-12-06T20:45:28.637Z,9.63
2022-12-06T20:47:58.026Z,9.77
2022-12-06T20:50:28.195Z,10.40
2022-12-06T20:52:57.457Z,11.70
2022-12-06T20:55:30.587Z,12.30
2022-12-06T20:58:00.121Z,12.33
2022-12-06T21:00:33.572Z,11.63
2022-12-06T21:03:15.493Z,10.00
2022-12-06T21:05:48.780Z,11.10
2022-12-06T21:08:23.088Z,15.17
2022-12-06T21:11:21.555Z,12.77
2022-12-06T21:13:45.600Z,12.23
2022-12-06T21:16:17.576Z,11.07
2022-12-06T21:18:46.415Z,12.37
2022-12-06T21:21:23.864Z,12.00
2022-12-06T21:23:57.997Z,8.57
2022-12-06T21:26:44.614Z,11.77
2022-12-06T21:29:21.690Z,10.77
2022-12-06T21:31:52.885Z,11.57
2022-12-06T21:34:25.846Z,16.70
2022-12-06T21:36:58.876Z,10.87
2022-12-06T21:39:27.984Z,11.57
2022-12-06T21:42:05.076Z,10.17
2022-12-06T21:44:46.943Z,9.77
2022-12-06T21:47:16.113Z,10.20
2022-12-06T21:49:45.741Z,10.63
2022-12-06T21:52:19.599Z,10.47
2022-12-06T21:54:50.157Z,9.00
2022-12-06T21:57:22.022Z,10.70
2022-12-06T21:59:54.855Z,12.00
2022-12-06T22:02:25.248Z,13.70
2022-12-06T22:07:37.169Z,9.60
2022-12-06T22:10:09.096Z,12.43
2022-12-06T22:12:41.787Z,9.17
2022-12-06T22:15:20.622Z,10.23
2022-12-06T22:17:49.467Z,10.97
2022-12-06T22:20:18.477Z,10.63
2022-12-06T22:22:48.726Z,12.43
2022-12-06T22:25:19.603Z,10.97
2022-12-06T22:27:49.392Z,13.10
2022-12-06T22:30:17.624Z,12.00
2022-12-06T22:32:45.933Z,12.10
2022-12-06T22:35:14.082Z,10.33
2022-12-06T22:37:42.400Z,11.13
2022-12-06T22:40:11.243Z,11.43
2022-12-06T22:42:39.789Z,10.60
2022-12-06T22:45:10.578Z,10.37
2022-12-06T22:47:38.923Z,14.50
2022-12-06T22:50:09.278Z,12.00
2022-12-06T22:52:37.931Z,11.57
2022-12-06T22:55:07.238Z,13.33
2022-12-06T22:57:35.273Z,11.50
2022-12-06T23:00:03.886Z,14.80
2022-12-06T23:02:36.899Z,12.13
2022-12-06T23:05:05.175Z,11.27
2022-12-06T23:07:33.178Z,12.23
2022-12-06T23:10:01.470Z,12.80
2022-12-06T23:12:29.532Z,12.10
2022-12-06T23:14:58.583Z,12.67
2022-12-06T23:17:26.580Z,12.80
2022-12-06T23:19:56.030Z,12.07
2022-12-06T23:22:24.029Z,11.57
2022-12-06T23:24:52.117Z,13.77
2022-12-06T23:27:20.186Z,13.77
2022-12-06T23:29:48.138Z,13.40
2022-12-06T23:32:16.210Z,10.70
2022-12-06T23:34:44.133Z,11.20
2022-12-06T23:37:13.432Z,11.57
2022-12-06T23:39:41.426Z,10.53
2022-12-06T23:42:09.378Z,8.60
2022-12-06T23:44:40.097Z,10.70
2022-12-06T23:47:08.069Z,9.20
2022-12-06T23:49:36.091Z,11.87
2022-12-06T23:52:04.234Z,9.50
2022-12-06T23:54:33.573Z,9.67
2022-12-06T23:57:01.477Z,11.47
2022-12-06T23:59:29.432Z,10.90
